createdAt,value
2022-12-29T00:04:33.060Z,92.3
2022-12-29T00:10:22.350Z,93.9
2022-12-29T00:16:11.232Z,94.6
2022-12-29T00:24:20.000Z,94.4
2022-12-29T00:30:08.541Z,95.3
2022-12-29T00:36:01.492Z,95.5
2022-12-29T00:41:51.432Z,97.1
2022-12-29T00:47:41.673Z,97.9
2022-12-29T00:53:32.234Z,98.7
2022-12-29T00:59:22.974Z,98.9
2022-12-29T01:05:15.526Z,98.6
2022-12-29T01:11:09.541Z,96.7
2022-12-29T01:17:00.015Z,92.6
2022-12-29T01:22:51.192Z,90.8
2022-12-29T01:28:41.612Z,89.7
2022-12-29T01:34:33.092Z,88.3
2022-12-29T01:40:28.043Z,88.7
2022-12-29T01:46:21.657Z,88.8
2022-12-29T01:52:12.954Z,88.6
2022-12-29T01:58:04.378Z,88.6
2022-12-29T02:03:55.314Z,87.9
2022-12-29T02:09:43.682Z,87.9
2022-12-29T02:15:32.603Z,88
2022-12-29T02:21:25.209Z,89.3
2022-12-29T02:27:18.159Z,90.9
2022-12-29T02:33:08.856Z,92.3
2022-12-29T02:39:01.750Z,92.4
2022-12-29T02:44:52.556Z,93.1
2022-12-29T02:50:42.654Z,92.9
2022-12-29T02:56:33.544Z,94.4
2022-12-29T03:02:25.316Z,95
2022-12-29T03:08:19.675Z,94.8
2022-12-29T03:14:09.660Z,94.2
2022-12-29T03:20:00.854Z,93.4
2022-12-29T03:25:52.645Z,92.8
2022-12-29T03:31:43.337Z,93.1
2022-12-29T03:37:35.567Z,93.6
2022-12-29T03:43:26.174Z,93.4
2022-12-29T03:49:17.207Z,93
2022-12-29T03:55:09.015Z,92.7
2022-12-29T04:01:01.489Z,92.6
2022-12-29T04:06:52.371Z,92.2
2022-12-29T04:12:43.208Z,93
2022-12-29T04:18:34.386Z,93.7
2022-12-29T04:24:26.655Z,94.2
2022-12-29T04:30:19.545Z,94.2
2022-12-29T04:36:10.680Z,93.5
2022-12-29T04:42:01.448Z,92.3
2022-12-29T04:47:52.092Z,92
2022-12-29T04:53:43.431Z,92
2022-12-29T04:59:35.533Z,91.4
2022-12-29T05:05:25.538Z,95.6
2022-12-29T05:11:17.647Z,100
2022-12-29T05:17:09.246Z,100
2022-12-29T05:22:57.399Z,100
2022-12-29T05:28:47.663Z,100
2022-12-29T05:34:39.939Z,100
2022-12-29T05:40:30.179Z,100
2022-12-29T05:46:21.665Z,100
2022-12-29T05:52:13.311Z,100
2022-12-29T05:58:05.221Z,100
2022-12-29T06:03:56.041Z,100
2022-12-29T06:09:44.673Z,100
2022-12-29T06:15:34.691Z,100
2022-12-29T06:21:25.427Z,100
2022-12-29T06:27:16.587Z,100
2022-12-29T06:33:06.630Z,100
2022-12-29T06:38:55.702Z,100
2022-12-29T06:44:47.127Z,100
2022-12-29T06:50:36.746Z,100
2022-12-29T06:56:25.491Z,100
2022-12-29T07:02:18.928Z,100
2022-12-29T07:08:09.150Z,100
2022-12-29T07:14:02.070Z,100
2022-12-29T07:19:50.699Z,100
2022-12-29T07:25:39.860Z,100
2022-12-29T07:31:29.291Z,100
2022-12-29T07:37:19.954Z,100
2022-12-29T07:43:08.873Z,99.8
2022-12-29T07:49:01.506Z,97.1
2022-12-29T07:54:50.487Z,94.4
2022-12-29T08:00:40.841Z,93.5
2022-12-29T08:06:31.174Z,92.8
2022-12-29T08:12:20.449Z,92.8
2022-12-29T08:18:10.559Z,93
2022-12-29T08:24:01.157Z,92.9
2022-12-29T08:29:52.792Z,92.9
2022-12-29T08:35:43.360Z,92.7
2022-12-29T08:41:35.183Z,91.5
2022-12-29T08:47:26.593Z,91
2022-12-29T08:53:17.452Z,91.6
2022-12-29T08:59:09.523Z,90.7
2022-12-29T09:05:01.065Z,90.4
2022-12-29T09:10:52.124Z,89.4
2022-12-29T09:16:43.115Z,89.2
2022-12-29T09:22:34.224Z,88.2
2022-12-29T09:28:25.684Z,87.6
2022-12-29T09:34:16.771Z,87
2022-12-29T09:40:08.015Z,87.2
2022-12-29T09:45:59.389Z,86.3
2022-12-29T09:51:52.300Z,86.2
2022-12-29T09:57:44.315Z,84.6
2022-12-29T10:03:35.680Z,85.7
2022-12-29T10:09:25.758Z,84
2022-12-29T10:15:16.522Z,83.6
2022-12-29T10:21:07.523Z,82.6
2022-12-29T10:26:57.864Z,82.3
2022-12-29T10:32:48.475Z,81.2
2022-12-29T10:38:39.989Z,81.1
2022-12-29T10:44:29.525Z,80.1
2022-12-29T10:50:19.894Z,78.4
2022-12-29T10:56:10.561Z,77.4
2022-12-29T11:02:02.357Z,75.7
2022-12-29T11:07:57.836Z,75.7
2022-12-29T11:13:48.118Z,75.5
2022-12-29T11:19:42.845Z,76
2022-12-29T11:25:34.781Z,75.5
2022-12-29T11:31:26.110Z,75.4
2022-12-29T11:37:14.590Z,75.8
2022-12-29T11:43:02.707Z,74.8
2022-12-29T11:48:53.148Z,74.8
2022-12-29T11:54:42.288Z,73.5
2022-12-29T12:00:30.780Z,73.1
2022-12-29T12:06:20.886Z,73.2
2022-12-29T12:12:11.586Z,73
2022-12-29T12:18:02.017Z,73.2
2022-12-29T12:23:51.883Z,73.5
2022-12-29T12:29:41.708Z,72.7
2022-12-29T12:35:33.767Z,73.2
2022-12-29T12:41:23.944Z,72.3
2022-12-29T12:47:15.426Z,71.7
2022-12-29T12:53:04.537Z,71.8
2022-12-29T12:58:55.117Z,71.9
2022-12-29T13:04:55.371Z,72
2022-12-29T13:10:48.413Z,73
2022-12-29T13:16:42.324Z,73.4
2022-12-29T13:22:34.503Z,73.4
2022-12-29T13:28:25.825Z,73.2
2022-12-29T13:34:15.644Z,73.6
2022-12-29T13:40:04.930Z,73.3
2022-12-29T13:45:54.388Z,72.9
2022-12-29T13:51:44.608Z,73.1
2022-12-29T13:57:35.495Z,73.3
2022-12-29T14:03:31.804Z,73.9
2022-12-29T14:09:35.706Z,73.9
2022-12-29T14:15:26.168Z,73.3
2022-12-29T14:21:31.803Z,72
2022-12-29T14:27:50.961Z,69.9
2022-12-29T14:33:49.141Z,70
2022-12-29T14:39:41.473Z,69.1
2022-12-29T14:45:39.038Z,70.1
2022-12-29T14:51:33.295Z,70
2022-12-29T14:57:26.039Z,70.3
2022-12-29T15:03:16.118Z,70.1
2022-12-29T15:09:11.411Z,70.5
2022-12-29T15:15:02.781Z,70.8
2022-12-29T15:20:55.249Z,71.3
2022-12-29T15:26:46.970Z,70.9
2022-12-29T15:32:41.826Z,71.2
2022-12-29T15:38:42.022Z,70.4
2022-12-29T15:44:30.605Z,71.1
2022-12-29T15:50:22.723Z,71.9
2022-12-29T15:56:13.052Z,72.2
2022-12-29T16:02:12.432Z,73.4
2022-12-29T16:08:06.924Z,74
2022-12-29T16:14:02.145Z,74.7
2022-12-29T16:19:53.805Z,74.6
2022-12-29T16:25:54.982Z,75.2
2022-12-29T16:31:47.580Z,74.9
2022-12-29T16:37:38.282Z,75.4
2022-12-29T16:43:27.991Z,77
2022-12-29T16:49:26.453Z,78.2
2022-12-29T16:55:15.383Z,79.2
2022-12-29T17:01:04.740Z,79.9
2022-12-29T17:06:56.067Z,79.9
2022-12-29T17:12:45.941Z,80
2022-12-29T17:18:36.863Z,79.9
2022-12-29T17:24:28.232Z,79.9
2022-12-29T17:30:26.071Z,80
2022-12-29T17:36:23.775Z,80.5
2022-12-29T17:42:14.464Z,80.1
2022-12-29T17:48:04.980Z,80.2
2022-12-29T17:53:54.620Z,80.1
2022-12-29T17:59:45.732Z,80.4
2022-12-29T18:05:40.716Z,80.5
2022-12-29T18:11:36.300Z,80.7
2022-12-29T18:17:29.246Z,80.2
2022-12-29T18:23:19.641Z,80.2
2022-12-29T18:29:10.611Z,80.5
2022-12-29T18:35:00.708Z,80.8
2022-12-29T18:40:52.690Z,80.1
2022-12-29T18:46:42.937Z,80.4
2022-12-29T18:52:37.540Z,80.4
2022-12-29T18:58:34.430Z,80.1
2022-12-29T19:04:23.003Z,80.5
2022-12-29T19:11:24.100Z,80.5
2022-12-29T19:19:08.159Z,80.4
2022-12-29T19:25:09.772Z,80.4
2022-12-29T19:31:03.188Z,80.7
2022-12-29T19:36:53.623Z,81
2022-12-29T19:42:42.763Z,80.7
2022-12-29T19:48:32.408Z,80.6
2022-12-29T19:54:21.647Z,80.8
2022-12-29T20:00:12.161Z,80.4
2022-12-29T20:06:01.551Z,80
2022-12-29T20:11:51.625Z,82.1
2022-12-29T20:24:16.543Z,81.3
2022-12-29T20:30:09.506Z,82.9
2022-12-29T20:35:59.036Z,84.9
2022-12-29T20:41:49.604Z,84.5
2022-12-29T20:47:41.393Z,83.4
2022-12-29T20:53:35.639Z,84.2
2022-12-29T20:59:30.130Z,86.1
2022-12-29T21:05:27.572Z,88
2022-12-29T21:11:16.560Z,86.3
2022-12-29T21:17:06.624Z,86.9
2022-12-29T21:23:01.277Z,87
2022-12-29T21:28:55.518Z,86.6
2022-12-29T21:34:46.929Z,87.3
2022-12-29T21:40:44.753Z,88.7
2022-12-29T21:46:41.883Z,86.6
2022-12-29T21:52:45.735Z,85.9
2022-12-29T21:58:36.973Z,85.1
2022-12-29T22:04:26.133Z,84.5
2022-12-29T22:10:17.848Z,84
2022-12-29T22:16:08.805Z,84
2022-12-29T22:22:00.920Z,85.2
2022-12-29T22:28:00.255Z,85.6
2022-12-29T22:33:49.387Z,85.3
2022-12-29T22:39:38.709Z,84.3
2022-12-29T22:45:28.419Z,84.9
2022-12-29T22:51:18.505Z,85.3
2022-12-29T22:57:08.679Z,85.5
2022-12-29T23:02:58.907Z,85
2022-12-29T23:08:48.546Z,85.6
2022-12-29T23:14:37.256Z,86.6
2022-12-29T23:20:26.494Z,87.3
2022-12-29T23:26:17.024Z,86.3
2022-12-29T23:32:07.133Z,86.3
2022-12-29T23:37:56.567Z,87.4
2022-12-29T23:43:46.674Z,87.3
2022-12-29T23:49:36.841Z,87.1
2022-12-29T23:55:26.895Z,87.7
